Terminal Aerodrome Forecast
Issued by NWS Northern Indiana

Home | Current Version | Previous Version | Text Only | Print | Product List | Glossary Off
Versions: 1 2 3 4 5 6 7 8 9 10 11 12 13 14

000
FTUS43 KIWX 020538
TAFFWA
TAF
KFWA 020538Z 0206/0306 22004KT P6SM FEW050
      TEMPO 0210/0212 4SM BR
     FM021600 26009KT P6SM SCT035
     FM030000 25005KT P6SM SCT050=

USA.gov is the U.S. government's official web portal to all federal, state and local government web resources and services.